sensor_id;sensor_type;location;lat;lon;timestamp;P1;durP1;ratioP1;P2;durP2;ratioP2
69126;SDS011;56688;50.234;19.292;2023-02-28T00:00:36;10.10;;;4.60;;
69126;SDS011;56688;50.234;19.292;2023-02-28T00:03:04;9.80;;;4.50;;
69126;SDS011;56688;50.234;19.292;2023-02-28T00:05:31;9.40;;;5.00;;
69126;SDS011;56688;50.234;19.292;2023-02-28T00:07:58;8.80;;;4.30;;
69126;SDS011;56688;50.234;19.292;2023-02-28T00:10:25;9.50;;;4.80;;
69126;SDS011;56688;50.234;19.292;2023-02-28T00:12:55;7.30;;;4.10;;
69126;SDS011;56688;50.234;19.292;2023-02-28T00:15:25;13.40;;;6.80;;
69126;SDS011;56688;50.234;19.292;2023-02-28T00:17:52;16.40;;;8.50;;
69126;SDS011;56688;50.234;19.292;2023-02-28T00:20:19;10.80;;;6.20;;
69126;SDS011;56688;50.234;19.292;2023-02-28T00:22:48;11.70;;;5.50;;
69126;SDS011;56688;50.234;19.292;2023-02-28T00:25:18;14.10;;;6.80;;
69126;SDS011;56688;50.234;19.292;2023-02-28T00:27:47;13.80;;;7.50;;
69126;SDS011;56688;50.234;19.292;2023-02-28T00:30:16;13.80;;;7.20;;
69126;SDS011;56688;50.234;19.292;2023-02-28T00:32:44;8.90;;;4.00;;
69126;SDS011;56688;50.234;19.292;2023-02-28T00:35:11;6.50;;;3.70;;
69126;SDS011;56688;50.234;19.292;2023-02-28T00:37:40;6.80;;;3.80;;
69126;SDS011;56688;50.234;19.292;2023-02-28T00:40:07;8.90;;;4.10;;
69126;SDS011;56688;50.234;19.292;2023-02-28T00:42:37;9.60;;;4.50;;
69126;SDS011;56688;50.234;19.292;2023-02-28T00:45:07;7.50;;;4.00;;
69126;SDS011;56688;50.234;19.292;2023-02-28T00:47:37;9.80;;;4.60;;
69126;SDS011;56688;50.234;19.292;2023-02-28T00:50:04;10.00;;;4.80;;
69126;SDS011;56688;50.234;19.292;2023-02-28T00:52:31;11.70;;;5.00;;
69126;SDS011;56688;50.234;19.292;2023-02-28T00:54:58;12.10;;;5.50;;
69126;SDS011;56688;50.234;19.292;2023-02-28T00:57:26;14.50;;;6.10;;
69126;SDS011;56688;50.234;19.292;2023-02-28T00:59:52;9.50;;;5.20;;
69126;SDS011;56688;50.234;19.292;2023-02-28T01:02:21;10.80;;;5.00;;
69126;SDS011;56688;50.234;19.292;2023-02-28T01:04:51;11.20;;;5.20;;
69126;SDS011;56688;50.234;19.292;2023-02-28T01:07:18;11.40;;;5.60;;
69126;SDS011;56688;50.234;19.292;2023-02-28T01:09:45;14.90;;;5.60;;
69126;SDS011;56688;50.234;19.292;2023-02-28T01:12:12;12.80;;;5.70;;
69126;SDS011;56688;50.234;19.292;2023-02-28T01:14:39;10.90;;;4.50;;
69126;SDS011;56688;50.234;19.292;2023-02-28T01:17:06;11.60;;;5.40;;
69126;SDS011;56688;50.234;19.292;2023-02-28T01:19:33;15.90;;;5.90;;
69126;SDS011;56688;50.234;19.292;2023-02-28T01:22:03;15.90;;;6.40;;
69126;SDS011;56688;50.234;19.292;2023-02-28T01:24:31;12.50;;;5.80;;
69126;SDS011;56688;50.234;19.292;2023-02-28T01:26:59;8.40;;;4.50;;
69126;SDS011;56688;50.234;19.292;2023-02-28T01:29:26;10.10;;;5.00;;
69126;SDS011;56688;50.234;19.292;2023-02-28T01:31:53;11.90;;;5.00;;
69126;SDS011;56688;50.234;19.292;2023-02-28T01:34:20;11.70;;;5.60;;
69126;SDS011;56688;50.234;19.292;2023-02-28T01:36:47;7.90;;;4.50;;
69126;SDS011;56688;50.234;19.292;2023-02-28T01:39:14;9.50;;;4.70;;
69126;SDS011;56688;50.234;19.292;2023-02-28T01:41:40;11.00;;;4.90;;
69126;SDS011;56688;50.234;19.292;2023-02-28T01:47:05;11.90;;;5.60;;
69126;SDS011;56688;50.234;19.292;2023-02-28T01:49:32;12.00;;;5.40;;
69126;SDS011;56688;50.234;19.292;2023-02-28T01:51:58;12.30;;;5.60;;
69126;SDS011;56688;50.234;19.292;2023-02-28T01:54:26;12.80;;;5.50;;
69126;SDS011;56688;50.234;19.292;2023-02-28T01:57:03;12.50;;;5.80;;
69126;SDS011;56688;50.234;19.292;2023-02-28T01:59:38;10.80;;;5.50;;
69126;SDS011;56688;50.234;19.292;2023-02-28T02:02:16;10.80;;;5.60;;
69126;SDS011;56688;50.234;19.292;2023-02-28T02:04:47;12.90;;;5.40;;
69126;SDS011;56688;50.234;19.292;2023-02-28T02:09:46;11.70;;;6.10;;
69126;SDS011;56688;50.234;19.292;2023-02-28T02:12:19;14.40;;;6.00;;
69126;SDS011;56688;50.234;19.292;2023-02-28T02:17:44;14.60;;;5.60;;
69126;SDS011;56688;50.234;19.292;2023-02-28T02:20:16;12.70;;;6.40;;
69126;SDS011;56688;50.234;19.292;2023-02-28T02:37:33;17.60;;;6.50;;
69126;SDS011;56688;50.234;19.292;2023-02-28T02:40:07;18.50;;;7.30;;
69126;SDS011;56688;50.234;19.292;2023-02-28T02:42:41;12.60;;;6.30;;
69126;SDS011;56688;50.234;19.292;2023-02-28T02:45:17;12.60;;;5.50;;
69126;SDS011;56688;50.234;19.292;2023-02-28T02:47:50;18.90;;;6.90;;
69126;SDS011;56688;50.234;19.292;2023-02-28T02:50:21;13.60;;;6.40;;
69126;SDS011;56688;50.234;19.292;2023-02-28T02:52:57;16.60;;;6.90;;
69126;SDS011;56688;50.234;19.292;2023-02-28T02:55:28;15.60;;;6.90;;
69126;SDS011;56688;50.234;19.292;2023-02-28T02:58:02;12.70;;;6.60;;
69126;SDS011;56688;50.234;19.292;2023-02-28T03:00:33;14.10;;;6.00;;
69126;SDS011;56688;50.234;19.292;2023-02-28T03:03:04;14.90;;;6.70;;
69126;SDS011;56688;50.234;19.292;2023-02-28T03:05:35;13.00;;;6.30;;
69126;SDS011;56688;50.234;19.292;2023-02-28T03:08:11;15.50;;;7.10;;
69126;SDS011;56688;50.234;19.292;2023-02-28T03:10:39;17.40;;;7.90;;
69126;SDS011;56688;50.234;19.292;2023-02-28T03:18:25;19.80;;;7.90;;
69126;SDS011;56688;50.234;19.292;2023-02-28T03:23:32;17.00;;;7.50;;
69126;SDS011;56688;50.234;19.292;2023-02-28T03:26:12;17.60;;;8.00;;
69126;SDS011;56688;50.234;19.292;2023-02-28T03:31:15;26.90;;;8.60;;
69126;SDS011;56688;50.234;19.292;2023-02-28T03:33:44;16.40;;;7.80;;
69126;SDS011;56688;50.234;19.292;2023-02-28T03:36:14;16.30;;;7.20;;
69126;SDS011;56688;50.234;19.292;2023-02-28T03:38:48;18.60;;;8.10;;
69126;SDS011;56688;50.234;19.292;2023-02-28T03:41:21;17.70;;;7.80;;
69126;SDS011;56688;50.234;19.292;2023-02-28T03:43:55;16.40;;;7.50;;
69126;SDS011;56688;50.234;19.292;2023-02-28T03:46:27;14.60;;;7.40;;
69126;SDS011;56688;50.234;19.292;2023-02-28T03:49:00;19.40;;;6.70;;
69126;SDS011;56688;50.234;19.292;2023-02-28T03:51:32;14.70;;;6.80;;
69126;SDS011;56688;50.234;19.292;2023-02-28T03:54:05;16.90;;;7.00;;
69126;SDS011;56688;50.234;19.292;2023-02-28T03:56:37;16.60;;;7.60;;
69126;SDS011;56688;50.234;19.292;2023-02-28T03:59:12;16.40;;;8.60;;
69126;SDS011;56688;50.234;19.292;2023-02-28T04:01:45;21.30;;;9.70;;
69126;SDS011;56688;50.234;19.292;2023-02-28T04:04:14;23.20;;;10.60;;
69126;SDS011;56688;50.234;19.292;2023-02-28T04:06:42;23.20;;;10.20;;
69126;SDS011;56688;50.234;19.292;2023-02-28T04:09:12;20.80;;;9.80;;
69126;SDS011;56688;50.234;19.292;2023-02-28T04:11:40;21.80;;;9.60;;
69126;SDS011;56688;50.234;19.292;2023-02-28T04:14:09;24.80;;;10.30;;
69126;SDS011;56688;50.234;19.292;2023-02-28T04:16:38;18.80;;;9.40;;
69126;SDS011;56688;50.234;19.292;2023-02-28T04:19:08;25.80;;;10.70;;
69126;SDS011;56688;50.234;19.292;2023-02-28T04:21:37;21.80;;;10.20;;
69126;SDS011;56688;50.234;19.292;2023-02-28T04:24:07;26.20;;;10.50;;
69126;SDS011;56688;50.234;19.292;2023-02-28T04:29:10;20.30;;;8.80;;
69126;SDS011;56688;50.234;19.292;2023-02-28T04:31:38;18.20;;;9.40;;
69126;SDS011;56688;50.234;19.292;2023-02-28T04:34:06;22.90;;;10.20;;
69126;SDS011;56688;50.234;19.292;2023-02-28T04:36:33;23.30;;;10.30;;
69126;SDS011;56688;50.234;19.292;2023-02-28T04:38:59;18.70;;;9.20;;
69126;SDS011;56688;50.234;19.292;2023-02-28T04:41:26;22.50;;;10.00;;
69126;SDS011;56688;50.234;19.292;2023-02-28T04:43:57;27.80;;;11.10;;
69126;SDS011;56688;50.234;19.292;2023-02-28T04:46:24;22.20;;;9.50;;
69126;SDS011;56688;50.234;19.292;2023-02-28T04:48:51;23.10;;;10.50;;
69126;SDS011;56688;50.234;19.292;2023-02-28T04:51:18;24.00;;;9.90;;
69126;SDS011;56688;50.234;19.292;2023-02-28T04:53:46;22.80;;;9.60;;
69126;SDS011;56688;50.234;19.292;2023-02-28T04:56:14;24.40;;;10.60;;
69126;SDS011;56688;50.234;19.292;2023-02-28T04:58:43;24.30;;;9.80;;
69126;SDS011;56688;50.234;19.292;2023-02-28T05:03:55;14.50;;;6.40;;
69126;SDS011;56688;50.234;19.292;2023-02-28T05:06:24;26.30;;;9.70;;
69126;SDS011;56688;50.234;19.292;2023-02-28T05:08:53;18.20;;;7.70;;
69126;SDS011;56688;50.234;19.292;2023-02-28T05:13:48;24.30;;;10.30;;
69126;SDS011;56688;50.234;19.292;2023-02-28T05:16:16;23.50;;;10.10;;
69126;SDS011;56688;50.234;19.292;2023-02-28T05:18:43;26.00;;;10.10;;
69126;SDS011;56688;50.234;19.292;2023-02-28T05:23:57;9.00;;;3.90;;
69126;SDS011;56688;50.234;19.292;2023-02-28T05:26:27;6.20;;;3.70;;
69126;SDS011;56688;50.234;19.292;2023-02-28T05:28:55;16.30;;;6.00;;
69126;SDS011;56688;50.234;19.292;2023-02-28T05:31:22;21.40;;;10.00;;
69126;SDS011;56688;50.234;19.292;2023-02-28T05:33:49;21.40;;;9.70;;
69126;SDS011;56688;50.234;19.292;2023-02-28T05:36:17;22.60;;;9.60;;
69126;SDS011;56688;50.234;19.292;2023-02-28T05:38:45;7.60;;;3.90;;
69126;SDS011;56688;50.234;19.292;2023-02-28T05:41:13;9.40;;;5.20;;
69126;SDS011;56688;50.234;19.292;2023-02-28T05:43:41;24.60;;;12.20;;
69126;SDS011;56688;50.234;19.292;2023-02-28T05:46:08;30.40;;;14.10;;
69126;SDS011;56688;50.234;19.292;2023-02-28T05:48:38;25.30;;;10.10;;
69126;SDS011;56688;50.234;19.292;2023-02-28T05:51:06;26.70;;;12.90;;
69126;SDS011;56688;50.234;19.292;2023-02-28T05:53:34;32.90;;;12.80;;
69126;SDS011;56688;50.234;19.292;2023-02-28T05:56:01;20.90;;;8.20;;
69126;SDS011;56688;50.234;19.292;2023-02-28T05:58:28;23.90;;;11.60;;
69126;SDS011;56688;50.234;19.292;2023-02-28T06:00:59;23.70;;;11.60;;
69126;SDS011;56688;50.234;19.292;2023-02-28T06:03:27;23.10;;;10.70;;
69126;SDS011;56688;50.234;19.292;2023-02-28T06:05:54;27.40;;;12.20;;
69126;SDS011;56688;50.234;19.292;2023-02-28T06:08:21;13.80;;;6.70;;
69126;SDS011;56688;50.234;19.292;2023-02-28T06:10:48;27.20;;;11.40;;
69126;SDS011;56688;50.234;19.292;2023-02-28T06:13:15;32.60;;;13.20;;
69126;SDS011;56688;50.234;19.292;2023-02-28T06:15:42;32.40;;;14.90;;
69126;SDS011;56688;50.234;19.292;2023-02-28T06:18:09;36.50;;;16.50;;
69126;SDS011;56688;50.234;19.292;2023-02-28T06:20:35;37.20;;;17.90;;
69126;SDS011;56688;50.234;19.292;2023-02-28T06:23:02;35.70;;;15.60;;
69126;SDS011;56688;50.234;19.292;2023-02-28T06:25:29;36.10;;;16.20;;
69126;SDS011;56688;50.234;19.292;2023-02-28T06:27:56;33.50;;;15.20;;
69126;SDS011;56688;50.234;19.292;2023-02-28T06:30:23;36.30;;;16.80;;
69126;SDS011;56688;50.234;19.292;2023-02-28T06:32:53;36.40;;;16.50;;
69126;SDS011;56688;50.234;19.292;2023-02-28T06:35:21;36.50;;;16.50;;
69126;SDS011;56688;50.234;19.292;2023-02-28T06:37:48;33.00;;;16.30;;
69126;SDS011;56688;50.234;19.292;2023-02-28T06:40:15;34.30;;;15.40;;
69126;SDS011;56688;50.234;19.292;2023-02-28T06:42:42;37.30;;;16.00;;
69126;SDS011;56688;50.234;19.292;2023-02-28T06:45:10;34.70;;;15.50;;
69126;SDS011;56688;50.234;19.292;2023-02-28T06:47:38;35.90;;;16.00;;
69126;SDS011;56688;50.234;19.292;2023-02-28T06:50:07;38.10;;;15.10;;
69126;SDS011;56688;50.234;19.292;2023-02-28T06:52:36;36.30;;;14.50;;
69126;SDS011;56688;50.234;19.292;2023-02-28T06:55:05;37.00;;;15.90;;
69126;SDS011;56688;50.234;19.292;2023-02-28T06:57:34;32.30;;;15.00;;
69126;SDS011;56688;50.234;19.292;2023-02-28T07:00:04;38.20;;;15.50;;
69126;SDS011;56688;50.234;19.292;2023-02-28T07:02:34;36.60;;;15.00;;
69126;SDS011;56688;50.234;19.292;2023-02-28T07:05:02;35.30;;;15.40;;
69126;SDS011;56688;50.234;19.292;2023-02-28T07:07:30;30.10;;;13.80;;
69126;SDS011;56688;50.234;19.292;2023-02-28T07:09:58;34.50;;;14.80;;
69126;SDS011;56688;50.234;19.292;2023-02-28T07:12:25;35.60;;;15.50;;
69126;SDS011;56688;50.234;19.292;2023-02-28T07:14:52;31.70;;;14.00;;
69126;SDS011;56688;50.234;19.292;2023-02-28T07:17:19;34.80;;;14.70;;
69126;SDS011;56688;50.234;19.292;2023-02-28T07:19:45;30.60;;;15.00;;
69126;SDS011;56688;50.234;19.292;2023-02-28T07:22:12;31.90;;;14.30;;
69126;SDS011;56688;50.234;19.292;2023-02-28T07:24:41;31.00;;;13.20;;
69126;SDS011;56688;50.234;19.292;2023-02-28T07:27:08;29.20;;;13.60;;
69126;SDS011;56688;50.234;19.292;2023-02-28T07:29:35;30.00;;;11.70;;
69126;SDS011;56688;50.234;19.292;2023-02-28T07:32:02;28.70;;;13.50;;
69126;SDS011;56688;50.234;19.292;2023-02-28T07:34:29;30.80;;;13.60;;
69126;SDS011;56688;50.234;19.292;2023-02-28T07:36:56;27.60;;;13.20;;
69126;SDS011;56688;50.234;19.292;2023-02-28T07:39:23;32.30;;;13.90;;
69126;SDS011;56688;50.234;19.292;2023-02-28T07:41:50;33.10;;;14.80;;
69126;SDS011;56688;50.234;19.292;2023-02-28T07:44:17;28.70;;;14.00;;
69126;SDS011;56688;50.234;19.292;2023-02-28T07:46:43;30.60;;;13.80;;
69126;SDS011;56688;50.234;19.292;2023-02-28T07:49:10;38.20;;;16.90;;
69126;SDS011;56688;50.234;19.292;2023-02-28T07:51:37;37.80;;;17.20;;
69126;SDS011;56688;50.234;19.292;2023-02-28T07:54:04;33.80;;;16.20;;
69126;SDS011;56688;50.234;19.292;2023-02-28T07:56:31;39.20;;;15.60;;
69126;SDS011;56688;50.234;19.292;2023-02-28T07:58:58;35.60;;;15.80;;
69126;SDS011;56688;50.234;19.292;2023-02-28T08:01:25;39.30;;;16.20;;
69126;SDS011;56688;50.234;19.292;2023-02-28T08:03:52;27.80;;;13.80;;
69126;SDS011;56688;50.234;19.292;2023-02-28T08:06:23;38.90;;;17.30;;
69126;SDS011;56688;50.234;19.292;2023-02-28T08:08:51;34.90;;;16.20;;
69126;SDS011;56688;50.234;19.292;2023-02-28T08:11:19;35.20;;;15.00;;
69126;SDS011;56688;50.234;19.292;2023-02-28T08:13:46;31.90;;;13.40;;
69126;SDS011;56688;50.234;19.292;2023-02-28T08:16:13;29.40;;;13.40;;
69126;SDS011;56688;50.234;19.292;2023-02-28T08:18:44;24.00;;;10.90;;
69126;SDS011;56688;50.234;19.292;2023-02-28T08:21:11;24.70;;;11.40;;
69126;SDS011;56688;50.234;19.292;2023-02-28T08:23:38;21.00;;;9.90;;
69126;SDS011;56688;50.234;19.292;2023-02-28T08:26:05;16.60;;;8.20;;
69126;SDS011;56688;50.234;19.292;2023-02-28T08:28:32;20.20;;;9.50;;
69126;SDS011;56688;50.234;19.292;2023-02-28T08:30:59;13.80;;;7.30;;
69126;SDS011;56688;50.234;19.292;2023-02-28T08:33:26;18.40;;;9.20;;
69126;SDS011;56688;50.234;19.292;2023-02-28T08:35:54;17.80;;;9.50;;
69126;SDS011;56688;50.234;19.292;2023-02-28T08:38:22;16.50;;;9.20;;
69126;SDS011;56688;50.234;19.292;2023-02-28T08:40:50;18.90;;;10.40;;
69126;SDS011;56688;50.234;19.292;2023-02-28T08:43:25;16.80;;;8.40;;
69126;SDS011;56688;50.234;19.292;2023-02-28T08:45:52;15.10;;;8.30;;
69126;SDS011;56688;50.234;19.292;2023-02-28T08:48:20;13.40;;;8.70;;
69126;SDS011;56688;50.234;19.292;2023-02-28T08:50:55;19.10;;;9.80;;
69126;SDS011;56688;50.234;19.292;2023-02-28T08:53:33;17.30;;;8.80;;
69126;SDS011;56688;50.234;19.292;2023-02-28T08:56:02;17.70;;;9.50;;
69126;SDS011;56688;50.234;19.292;2023-02-28T08:58:31;19.20;;;9.80;;
69126;SDS011;56688;50.234;19.292;2023-02-28T09:00:58;16.30;;;8.10;;
69126;SDS011;56688;50.234;19.292;2023-02-28T09:03:26;16.30;;;8.70;;
69126;SDS011;56688;50.234;19.292;2023-02-28T09:05:55;17.50;;;9.40;;
69126;SDS011;56688;50.234;19.292;2023-02-28T09:08:24;18.30;;;8.60;;
69126;SDS011;56688;50.234;19.292;2023-02-28T09:10:52;16.90;;;8.50;;
69126;SDS011;56688;50.234;19.292;2023-02-28T09:13:19;14.10;;;8.30;;
69126;SDS011;56688;50.234;19.292;2023-02-28T09:15:46;17.20;;;9.10;;
69126;SDS011;56688;50.234;19.292;2023-02-28T09:18:13;16.00;;;9.30;;
69126;SDS011;56688;50.234;19.292;2023-02-28T09:20:41;15.70;;;8.90;;
69126;SDS011;56688;50.234;19.292;2023-02-28T09:23:10;13.80;;;7.60;;
69126;SDS011;56688;50.234;19.292;2023-02-28T09:25:38;18.80;;;9.10;;
69126;SDS011;56688;50.234;19.292;2023-02-28T09:28:12;14.80;;;8.30;;
69126;SDS011;56688;50.234;19.292;2023-02-28T09:30:44;17.00;;;8.20;;
69126;SDS011;56688;50.234;19.292;2023-02-28T09:33:12;13.70;;;7.50;;
69126;SDS011;56688;50.234;19.292;2023-02-28T09:35:40;13.60;;;8.70;;
69126;SDS011;56688;50.234;19.292;2023-02-28T09:38:08;15.30;;;8.30;;
69126;SDS011;56688;50.234;19.292;2023-02-28T09:40:37;15.00;;;8.50;;
69126;SDS011;56688;50.234;19.292;2023-02-28T09:43:23;10.60;;;6.20;;
69126;SDS011;56688;50.234;19.292;2023-02-28T09:45:53;13.90;;;7.30;;
69126;SDS011;56688;50.234;19.292;2023-02-28T09:50:59;19.90;;;10.80;;
69126;SDS011;56688;50.234;19.292;2023-02-28T09:53:33;11.50;;;6.70;;
69126;SDS011;56688;50.234;19.292;2023-02-28T09:56:07;14.10;;;6.80;;
69126;SDS011;56688;50.234;19.292;2023-02-28T10:03:56;17.80;;;10.00;;
69126;SDS011;56688;50.234;19.292;2023-02-28T10:06:26;21.70;;;11.60;;
69126;SDS011;56688;50.234;19.292;2023-02-28T10:11:28;16.90;;;9.00;;
69126;SDS011;56688;50.234;19.292;2023-02-28T10:21:54;13.80;;;7.80;;
69126;SDS011;56688;50.234;19.292;2023-02-28T10:24:26;15.60;;;8.60;;
69126;SDS011;56688;50.234;19.292;2023-02-28T10:27:01;14.50;;;9.10;;
69126;SDS011;56688;50.234;19.292;2023-02-28T10:29:40;15.70;;;8.40;;
69126;SDS011;56688;50.234;19.292;2023-02-28T10:32:10;14.30;;;7.80;;
69126;SDS011;56688;50.234;19.292;2023-02-28T10:34:42;13.80;;;8.00;;
69126;SDS011;56688;50.234;19.292;2023-02-28T10:37:10;15.70;;;8.40;;
69126;SDS011;56688;50.234;19.292;2023-02-28T10:53:07;13.20;;;7.00;;
69126;SDS011;56688;50.234;19.292;2023-02-28T10:55:42;13.00;;;8.10;;
69126;SDS011;56688;50.234;19.292;2023-02-28T10:58:20;16.30;;;8.70;;
69126;SDS011;56688;50.234;19.292;2023-02-28T11:00:49;13.40;;;8.00;;
69126;SDS011;56688;50.234;19.292;2023-02-28T11:06:05;11.10;;;7.10;;
69126;SDS011;56688;50.234;19.292;2023-02-28T11:11:24;13.10;;;7.50;;
69126;SDS011;56688;50.234;19.292;2023-02-28T11:14:04;11.70;;;6.40;;
69126;SDS011;56688;50.234;19.292;2023-02-28T11:16:33;13.40;;;7.20;;
69126;SDS011;56688;50.234;19.292;2023-02-28T11:19:04;11.90;;;7.20;;
69126;SDS011;56688;50.234;19.292;2023-02-28T11:21:45;13.00;;;8.10;;
69126;SDS011;56688;50.234;19.292;2023-02-28T11:24:23;10.90;;;6.80;;
69126;SDS011;56688;50.234;19.292;2023-02-28T11:26:56;12.50;;;7.80;;
69126;SDS011;56688;50.234;19.292;2023-02-28T11:34:36;12.40;;;6.90;;
69126;SDS011;56688;50.234;19.292;2023-02-28T11:37:04;13.80;;;7.90;;
69126;SDS011;56688;50.234;19.292;2023-02-28T11:39:36;11.30;;;7.40;;
69126;SDS011;56688;50.234;19.292;2023-02-28T11:47:35;11.80;;;7.40;;
69126;SDS011;56688;50.234;19.292;2023-02-28T11:59:03;11.10;;;6.70;;
69126;SDS011;56688;50.234;19.292;2023-02-28T12:04:12;13.90;;;7.50;;
69126;SDS011;56688;50.234;19.292;2023-02-28T12:11:52;11.20;;;6.90;;
69126;SDS011;56688;50.234;19.292;2023-02-28T12:22:55;14.30;;;7.00;;
69126;SDS011;56688;50.234;19.292;2023-02-28T12:25:54;14.50;;;8.70;;
69126;SDS011;56688;50.234;19.292;2023-02-28T12:28:27;11.30;;;6.70;;
69126;SDS011;56688;50.234;19.292;2023-02-28T12:31:00;11.20;;;7.40;;
69126;SDS011;56688;50.234;19.292;2023-02-28T12:33:34;15.00;;;7.80;;
69126;SDS011;56688;50.234;19.292;2023-02-28T12:36:09;13.70;;;8.30;;
69126;SDS011;56688;50.234;19.292;2023-02-28T12:38:40;12.80;;;7.80;;
69126;SDS011;56688;50.234;19.292;2023-02-28T12:41:13;11.10;;;6.90;;
69126;SDS011;56688;50.234;19.292;2023-02-28T12:43:49;11.60;;;7.00;;
69126;SDS011;56688;50.234;19.292;2023-02-28T12:46:24;10.10;;;6.70;;
69126;SDS011;56688;50.234;19.292;2023-02-28T12:49:04;12.50;;;7.80;;
69126;SDS011;56688;50.234;19.292;2023-02-28T12:51:34;11.60;;;7.10;;
69126;SDS011;56688;50.234;19.292;2023-02-28T12:56:54;12.50;;;7.40;;
69126;SDS011;56688;50.234;19.292;2023-02-28T12:59:35;15.90;;;9.30;;
69126;SDS011;56688;50.234;19.292;2023-02-28T13:10:06;12.00;;;7.60;;
69126;SDS011;56688;50.234;19.292;2023-02-28T13:12:35;12.70;;;7.10;;
69126;SDS011;56688;50.234;19.292;2023-02-28T13:17:51;10.60;;;7.00;;
69126;SDS011;56688;50.234;19.292;2023-02-28T13:20:21;11.80;;;7.20;;
69126;SDS011;56688;50.234;19.292;2023-02-28T13:22:52;12.90;;;8.80;;
69126;SDS011;56688;50.234;19.292;2023-02-28T13:27:51;13.50;;;9.80;;
69126;SDS011;56688;50.234;19.292;2023-02-28T13:38:38;9.60;;;7.20;;
69126;SDS011;56688;50.234;19.292;2023-02-28T13:44:24;10.30;;;6.10;;
69126;SDS011;56688;50.234;19.292;2023-02-28T13:49:19;10.40;;;7.40;;
69126;SDS011;56688;50.234;19.292;2023-02-28T13:51:49;8.90;;;6.80;;
69126;SDS011;56688;50.234;19.292;2023-02-28T14:08:46;9.40;;;6.30;;
69126;SDS011;56688;50.234;19.292;2023-02-28T14:11:25;10.90;;;7.00;;
69126;SDS011;56688;50.234;19.292;2023-02-28T14:13:56;11.50;;;7.00;;
69126;SDS011;56688;50.234;19.292;2023-02-28T14:16:24;8.70;;;6.20;;
69126;SDS011;56688;50.234;19.292;2023-02-28T14:21:30;9.00;;;6.40;;
69126;SDS011;56688;50.234;19.292;2023-02-28T14:29:41;9.70;;;7.00;;
69126;SDS011;56688;50.234;19.292;2023-02-28T14:37:05;10.20;;;6.40;;
69126;SDS011;56688;50.234;19.292;2023-02-28T14:39:40;11.80;;;6.90;;
69126;SDS011;56688;50.234;19.292;2023-02-28T14:44:54;10.20;;;7.00;;
69126;SDS011;56688;50.234;19.292;2023-02-28T14:47:23;9.50;;;6.00;;
69126;SDS011;56688;50.234;19.292;2023-02-28T14:49:54;13.10;;;7.00;;
69126;SDS011;56688;50.234;19.292;2023-02-28T14:52:30;12.00;;;7.60;;
69126;SDS011;56688;50.234;19.292;2023-02-28T14:54:59;10.80;;;6.90;;
69126;SDS011;56688;50.234;19.292;2023-02-28T14:57:30;10.90;;;7.10;;
69126;SDS011;56688;50.234;19.292;2023-02-28T15:02:39;12.80;;;8.50;;
69126;SDS011;56688;50.234;19.292;2023-02-28T15:07:47;13.00;;;7.60;;
69126;SDS011;56688;50.234;19.292;2023-02-28T15:10:17;12.70;;;7.50;;
69126;SDS011;56688;50.234;19.292;2023-02-28T15:12:52;14.90;;;8.20;;
69126;SDS011;56688;50.234;19.292;2023-02-28T15:15:26;12.80;;;7.30;;
69126;SDS011;56688;50.234;19.292;2023-02-28T15:21:02;13.30;;;8.10;;
69126;SDS011;56688;50.234;19.292;2023-02-28T15:23:33;14.80;;;8.60;;
69126;SDS011;56688;50.234;19.292;2023-02-28T15:26:02;13.60;;;7.90;;
69126;SDS011;56688;50.234;19.292;2023-02-28T15:28:30;13.80;;;8.10;;
69126;SDS011;56688;50.234;19.292;2023-02-28T15:30:59;13.30;;;7.50;;
69126;SDS011;56688;50.234;19.292;2023-02-28T15:33:30;17.30;;;8.40;;
69126;SDS011;56688;50.234;19.292;2023-02-28T15:36:06;13.70;;;8.40;;
69126;SDS011;56688;50.234;19.292;2023-02-28T15:38:39;15.00;;;8.40;;
69126;SDS011;56688;50.234;19.292;2023-02-28T15:41:21;17.40;;;8.00;;
69126;SDS011;56688;50.234;19.292;2023-02-28T15:46:53;16.70;;;8.90;;
69126;SDS011;56688;50.234;19.292;2023-02-28T15:49:28;14.60;;;8.00;;
69126;SDS011;56688;50.234;19.292;2023-02-28T15:52:12;10.50;;;5.20;;
69126;SDS011;56688;50.234;19.292;2023-02-28T15:54:44;13.00;;;7.90;;
69126;SDS011;56688;50.234;19.292;2023-02-28T15:57:14;12.20;;;7.10;;
69126;SDS011;56688;50.234;19.292;2023-02-28T15:59:51;10.60;;;6.10;;
69126;SDS011;56688;50.234;19.292;2023-02-28T16:02:22;9.30;;;5.60;;
69126;SDS011;56688;50.234;19.292;2023-02-28T16:07:59;9.60;;;5.60;;
69126;SDS011;56688;50.234;19.292;2023-02-28T16:10:29;11.10;;;6.10;;
69126;SDS011;56688;50.234;19.292;2023-02-28T16:12:56;8.40;;;4.70;;
69126;SDS011;56688;50.234;19.292;2023-02-28T16:15:25;12.90;;;6.70;;
69126;SDS011;56688;50.234;19.292;2023-02-28T16:17:55;5.30;;;3.50;;
69126;SDS011;56688;50.234;19.292;2023-02-28T16:20:24;9.40;;;4.70;;
69126;SDS011;56688;50.234;19.292;2023-02-28T16:22:53;8.10;;;4.40;;
69126;SDS011;56688;50.234;19.292;2023-02-28T16:25:22;14.70;;;7.40;;
69126;SDS011;56688;50.234;19.292;2023-02-28T16:27:52;9.50;;;4.60;;
69126;SDS011;56688;50.234;19.292;2023-02-28T16:30:23;20.10;;;8.80;;
69126;SDS011;56688;50.234;19.292;2023-02-28T16:32:53;15.30;;;7.70;;
69126;SDS011;56688;50.234;19.292;2023-02-28T16:35:21;17.90;;;7.60;;
69126;SDS011;56688;50.234;19.292;2023-02-28T16:37:50;19.00;;;7.80;;
69126;SDS011;56688;50.234;19.292;2023-02-28T16:40:19;16.90;;;7.00;;
69126;SDS011;56688;50.234;19.292;2023-02-28T16:42:50;19.50;;;8.10;;
69126;SDS011;56688;50.234;19.292;2023-02-28T16:45:21;17.30;;;7.20;;
69126;SDS011;56688;50.234;19.292;2023-02-28T16:47:50;11.60;;;5.40;;
69126;SDS011;56688;50.234;19.292;2023-02-28T16:50:18;12.30;;;5.10;;
69126;SDS011;56688;50.234;19.292;2023-02-28T16:52:50;21.70;;;8.90;;
69126;SDS011;56688;50.234;19.292;2023-02-28T16:55:21;21.00;;;9.70;;
69126;SDS011;56688;50.234;19.292;2023-02-28T16:57:51;15.10;;;8.40;;
69126;SDS011;56688;50.234;19.292;2023-02-28T17:00:20;17.70;;;7.70;;
69126;SDS011;56688;50.234;19.292;2023-02-28T17:02:48;17.70;;;7.80;;
69126;SDS011;56688;50.234;19.292;2023-02-28T17:05:15;16.80;;;7.50;;
69126;SDS011;56688;50.234;19.292;2023-02-28T17:07:44;15.60;;;7.70;;
69126;SDS011;56688;50.234;19.292;2023-02-28T17:12:42;19.70;;;7.00;;
69126;SDS011;56688;50.234;19.292;2023-02-28T17:15:13;18.00;;;7.20;;
69126;SDS011;56688;50.234;19.292;2023-02-28T17:17:42;14.10;;;7.20;;
69126;SDS011;56688;50.234;19.292;2023-02-28T17:20:18;13.50;;;7.50;;
69126;SDS011;56688;50.234;19.292;2023-02-28T17:22:50;14.60;;;7.80;;
69126;SDS011;56688;50.234;19.292;2023-02-28T17:25:18;14.40;;;7.10;;
69126;SDS011;56688;50.234;19.292;2023-02-28T17:27:46;17.60;;;7.60;;
69126;SDS011;56688;50.234;19.292;2023-02-28T17:30:22;18.00;;;7.50;;
69126;SDS011;56688;50.234;19.292;2023-02-28T17:32:52;15.50;;;8.30;;
69126;SDS011;56688;50.234;19.292;2023-02-28T17:35:19;18.40;;;8.20;;
69126;SDS011;56688;50.234;19.292;2023-02-28T17:37:46;18.10;;;8.60;;
69126;SDS011;56688;50.234;19.292;2023-02-28T17:40:14;19.30;;;9.20;;
69126;SDS011;56688;50.234;19.292;2023-02-28T17:42:43;23.80;;;10.80;;
69126;SDS011;56688;50.234;19.292;2023-02-28T17:45:11;22.40;;;9.10;;
69126;SDS011;56688;50.234;19.292;2023-02-28T17:47:40;19.80;;;8.70;;